createdAt,value
2023-04-28T00:01:41.962Z,9.83
2023-04-28T00:04:09.219Z,9.90
2023-04-28T00:06:37.181Z,9.97
2023-04-28T00:09:04.105Z,10.03
2023-04-28T00:11:30.934Z,9.67
2023-04-28T00:13:57.777Z,9.90
2023-04-28T00:16:24.682Z,9.87
2023-04-28T00:18:52.066Z,10.07
2023-04-28T00:21:18.910Z,9.97
2023-04-28T00:23:45.910Z,10.70
2023-04-28T00:26:12.829Z,10.13
2023-04-28T00:28:39.892Z,10.97
2023-04-28T00:31:14.529Z,10.70
2023-04-28T00:33:42.607Z,11.00
2023-04-28T00:36:10.480Z,10.50
2023-04-28T00:38:37.571Z,10.93
2023-04-28T00:41:04.661Z,11.03
2023-04-28T00:43:31.646Z,10.50
2023-04-28T00:45:58.546Z,10.57
2023-04-28T00:48:25.510Z,10.43
2023-04-28T00:50:52.357Z,10.43
2023-04-28T00:53:19.299Z,10.93
2023-04-28T00:55:48.100Z,11.90
2023-04-28T00:58:15.067Z,11.60
2023-04-28T01:00:41.948Z,10.37
2023-04-28T01:03:09.309Z,10.90
2023-04-28T01:05:37.199Z,11.03
2023-04-28T01:08:04.806Z,10.33
2023-04-28T01:10:31.598Z,10.00
2023-04-28T01:12:58.497Z,10.97
2023-04-28T01:15:26.134Z,10.70
2023-04-28T01:17:54.145Z,10.47
2023-04-28T01:20:24.008Z,10.73
2023-04-28T01:22:50.795Z,10.67
2023-04-28T01:25:17.742Z,11.50
2023-04-28T01:27:44.507Z,10.63
2023-04-28T01:30:11.628Z,10.50
2023-04-28T01:32:38.464Z,10.93
2023-04-28T01:35:05.652Z,10.90
2023-04-28T01:37:32.419Z,10.97
2023-04-28T01:39:59.201Z,11.07
2023-04-28T01:42:26.045Z,10.70
2023-04-28T01:44:53.053Z,11.13
2023-04-28T01:47:20.491Z,11.27
2023-04-28T01:49:48.321Z,11.00
2023-04-28T01:52:15.279Z,10.90
2023-04-28T01:54:42.064Z,11.63
2023-04-28T01:57:08.865Z,10.27
2023-04-28T01:59:35.825Z,10.53
2023-04-28T02:02:02.716Z,10.80
2023-04-28T02:04:29.727Z,10.53
2023-04-28T02:06:56.521Z,10.37
2023-04-28T02:09:23.337Z,10.10
2023-04-28T02:11:50.410Z,10.63
2023-04-28T02:14:17.736Z,10.47
2023-04-28T02:16:44.826Z,10.63
2023-04-28T02:19:11.604Z,10.27
2023-04-28T02:21:38.445Z,10.83
2023-04-28T02:24:05.624Z,11.10
2023-04-28T02:26:33.982Z,11.17
2023-04-28T02:29:01.122Z,11.53
2023-04-28T02:31:27.964Z,11.40
2023-04-28T02:33:54.786Z,11.47
2023-04-28T02:36:21.845Z,10.80
2023-04-28T02:38:48.719Z,11.00
2023-04-28T02:41:15.657Z,11.30
2023-04-28T02:43:42.567Z,11.13
2023-04-28T02:46:09.450Z,10.90
2023-04-28T02:48:36.786Z,11.23
2023-04-28T02:51:03.856Z,10.80
2023-04-28T02:53:30.933Z,11.63
2023-04-28T02:55:58.071Z,11.63
2023-04-28T02:58:24.849Z,11.83
2023-04-28T03:00:51.676Z,11.33
2023-04-28T03:03:18.659Z,11.30
2023-04-28T03:05:46.154Z,11.43
2023-04-28T03:08:12.972Z,11.60
2023-04-28T03:10:39.750Z,11.07
2023-04-28T03:13:07.189Z,11.60
2023-04-28T03:15:34.057Z,11.40
2023-04-28T03:18:01.249Z,11.30
2023-04-28T03:20:28.205Z,11.50
2023-04-28T03:22:55.036Z,11.33
2023-04-28T03:25:21.819Z,10.87
2023-04-28T03:27:48.620Z,12.10
2023-04-28T03:30:15.598Z,11.50
2023-04-28T03:32:42.556Z,11.30
2023-04-28T03:35:09.694Z,11.53
2023-04-28T03:37:36.461Z,11.33
2023-04-28T03:40:03.441Z,10.77
2023-04-28T03:42:30.473Z,11.60
2023-04-28T03:44:57.303Z,11.80
2023-04-28T03:47:24.154Z,10.83
2023-04-28T03:49:52.148Z,10.63
2023-04-28T03:52:20.232Z,10.97
2023-04-28T03:54:47.344Z,10.83
2023-04-28T03:57:14.122Z,10.93
2023-04-28T03:59:41.050Z,11.13
2023-04-28T04:02:08.302Z,10.77
2023-04-28T04:04:35.387Z,11.00
2023-04-28T04:07:02.765Z,11.70
2023-04-28T04:09:29.829Z,12.17
2023-04-28T04:11:56.591Z,10.53
2023-04-28T04:14:23.375Z,11.60
2023-04-28T04:16:50.234Z,11.03
2023-04-28T04:19:17.179Z,11.40
2023-04-28T04:21:44.017Z,11.23
2023-04-28T04:24:10.793Z,10.87
2023-04-28T04:26:37.700Z,11.43
2023-04-28T04:29:04.563Z,11.57
2023-04-28T04:31:31.762Z,10.63
2023-04-28T04:33:59.226Z,10.17
2023-04-28T04:36:26.538Z,11.33
2023-04-28T04:38:54.531Z,10.70
2023-04-28T04:41:22.046Z,10.97
2023-04-28T04:43:49.004Z,10.47
2023-04-28T04:46:15.892Z,10.20
2023-04-28T04:48:43.302Z,11.17
2023-04-28T04:51:10.188Z,10.73
2023-04-28T04:53:37.263Z,10.40
2023-04-28T04:56:04.272Z,10.00
2023-04-28T04:58:31.298Z,10.00
2023-04-28T05:00:58.102Z,10.70
2023-04-28T05:03:25.149Z,10.60
2023-04-28T05:05:52.058Z,11.20
2023-04-28T05:08:20.345Z,10.57
2023-04-28T05:10:50.196Z,10.50
2023-04-28T05:13:17.040Z,11.07
2023-04-28T05:15:44.346Z,10.77
2023-04-28T05:18:11.553Z,11.23
2023-04-28T05:20:38.412Z,11.20
2023-04-28T05:23:06.012Z,11.10
2023-04-28T05:25:33.120Z,11.83
2023-04-28T05:28:05.431Z,11.40
2023-04-28T05:30:35.504Z,11.30
2023-04-28T05:33:02.496Z,10.93
2023-04-28T05:35:31.129Z,11.30
2023-04-28T05:37:58.974Z,11.57
2023-04-28T05:40:26.660Z,11.03
2023-04-28T05:42:53.699Z,12.23
2023-04-28T05:45:20.732Z,11.97
2023-04-28T05:47:47.766Z,11.80
2023-04-28T05:50:14.683Z,12.53
2023-04-28T05:52:41.484Z,11.13
2023-04-28T05:55:08.653Z,11.27
2023-04-28T05:57:49.194Z,11.27
2023-04-28T06:00:19.857Z,10.80
2023-04-28T06:02:46.842Z,11.50
2023-04-28T06:05:13.921Z,10.90
2023-04-28T06:07:41.009Z,11.00
2023-04-28T06:10:09.515Z,12.00
2023-04-28T06:12:37.403Z,11.07
2023-04-28T06:15:05.872Z,11.73
2023-04-28T06:17:33.571Z,11.67
2023-04-28T06:20:00.701Z,11.63
2023-04-28T06:22:27.731Z,10.97
2023-04-28T06:24:54.530Z,11.53
2023-04-28T06:27:21.358Z,11.53
2023-04-28T06:29:49.285Z,10.20
2023-04-28T06:32:16.309Z,9.80
2023-04-28T06:34:43.182Z,9.83
2023-04-28T06:37:09.995Z,9.17
2023-04-28T06:39:37.065Z,9.27
2023-04-28T06:42:04.207Z,8.30
2023-04-28T06:44:31.039Z,6.87
2023-04-28T06:46:57.882Z,7.00
2023-04-28T06:49:24.738Z,7.67
2023-04-28T06:51:52.276Z,8.70
2023-04-28T06:54:19.618Z,8.17
2023-04-28T06:56:49.202Z,9.60
2023-04-28T06:59:16.107Z,7.53
2023-04-28T07:01:42.992Z,8.03
2023-04-28T07:04:18.673Z,8.00
2023-04-28T07:06:45.840Z,7.90
2023-04-28T07:09:12.969Z,7.53
2023-04-28T07:11:43.092Z,7.50
2023-04-28T07:14:09.938Z,7.07
2023-04-28T07:16:45.975Z,6.10
2023-04-28T07:19:12.843Z,5.63
2023-04-28T07:21:39.988Z,5.20
2023-04-28T07:24:07.170Z,5.50
2023-04-28T07:26:44.217Z,4.10
2023-04-28T07:29:13.528Z,4.27
2023-04-28T07:31:40.805Z,3.80
2023-04-28T07:34:07.642Z,2.43
2023-04-28T07:36:34.829Z,4.20
2023-04-28T07:39:02.223Z,4.27
2023-04-28T07:41:29.385Z,4.27
2023-04-28T07:43:56.285Z,4.90
2023-04-28T07:46:26.392Z,4.90
2023-04-28T07:48:54.872Z,3.30
2023-04-28T07:51:21.830Z,2.50
2023-04-28T07:53:48.772Z,2.40
2023-04-28T07:56:16.272Z,2.93
2023-04-28T07:58:43.088Z,2.50
2023-04-28T08:01:09.971Z,2.53
2023-04-28T08:03:37.237Z,2.37
2023-04-28T08:06:05.461Z,2.20
2023-04-28T08:08:32.381Z,2.00
2023-04-28T08:11:00.374Z,2.17
2023-04-28T08:13:28.982Z,1.90
2023-04-28T08:15:57.021Z,2.10
2023-04-28T08:18:25.562Z,2.00
2023-04-28T08:20:53.521Z,2.30
2023-04-28T08:23:20.713Z,2.20
2023-04-28T08:25:48.122Z,2.30
2023-04-28T08:28:15.004Z,2.20
2023-04-28T08:30:41.865Z,2.50
2023-04-28T08:33:08.941Z,2.30
2023-04-28T08:35:35.880Z,2.33
2023-04-28T08:38:03.709Z,1.90
2023-04-28T08:40:31.568Z,1.60
2023-04-28T08:43:01.138Z,2.00
2023-04-28T08:45:30.631Z,2.30
2023-04-28T08:48:00.310Z,2.40
2023-04-28T08:50:31.399Z,2.20
2023-04-28T08:52:58.751Z,2.60
2023-04-28T08:55:27.268Z,2.60
2023-04-28T08:57:55.246Z,3.03
2023-04-28T09:00:22.148Z,2.40
2023-04-28T09:02:49.053Z,2.50
2023-04-28T09:05:16.344Z,2.50
2023-04-28T09:10:24.757Z,2.57
2023-04-28T09:12:53.583Z,2.60
2023-04-28T09:15:31.202Z,2.47
2023-04-28T09:17:59.711Z,2.90
2023-04-28T09:20:29.080Z,2.37
2023-04-28T09:22:57.282Z,2.57
2023-04-28T09:25:24.398Z,2.70
2023-04-28T09:27:51.282Z,2.70
2023-04-28T09:30:19.434Z,2.70
2023-04-28T09:32:46.265Z,2.60
2023-04-28T09:35:13.084Z,2.60
2023-04-28T09:37:40.278Z,2.43
2023-04-28T09:40:09.548Z,2.60
2023-04-28T09:42:41.657Z,2.60
2023-04-28T09:45:11.418Z,2.40
2023-04-28T09:47:39.956Z,2.50
2023-04-28T09:50:11.789Z,2.10
2023-04-28T09:52:39.010Z,2.23
2023-04-28T09:55:08.869Z,2.43
2023-04-28T09:57:37.550Z,2.13
2023-04-28T10:00:06.726Z,2.10
2023-04-28T10:05:12.885Z,2.40
2023-04-28T10:07:42.026Z,2.27
2023-04-28T10:10:09.669Z,2.27
2023-04-28T10:12:39.373Z,2.60
2023-04-28T10:15:09.651Z,2.30
2023-04-28T10:17:37.370Z,2.47
2023-04-28T10:20:06.494Z,2.57
2023-04-28T10:22:58.393Z,2.20
2023-04-28T10:25:26.754Z,2.13
2023-04-28T10:27:54.261Z,2.33
2023-04-28T10:30:28.665Z,2.10
2023-04-28T10:33:14.961Z,2.67
2023-04-28T10:35:48.241Z,2.30
2023-04-28T10:38:16.898Z,2.20
2023-04-28T10:40:51.583Z,1.83
2023-04-28T10:43:31.839Z,2.00
2023-04-28T10:46:02.447Z,1.80
2023-04-28T10:48:37.959Z,2.00
2023-04-28T10:51:09.627Z,2.30
2023-04-28T10:53:59.220Z,1.80
2023-04-28T10:56:27.668Z,2.00
2023-04-28T10:58:58.810Z,2.00
2023-04-28T11:01:26.632Z,1.80
2023-04-28T11:04:00.895Z,2.00
2023-04-28T11:06:31.711Z,2.23
2023-04-28T11:09:01.745Z,2.47
2023-04-28T11:11:33.058Z,2.17
2023-04-28T11:14:18.500Z,2.13
2023-04-28T11:17:03.325Z,2.00
2023-04-28T11:19:33.567Z,2.00
2023-04-28T11:22:03.689Z,2.30
2023-04-28T11:24:34.090Z,2.10
2023-04-28T11:27:10.372Z,2.37
2023-04-28T11:29:38.995Z,1.97
2023-04-28T11:32:07.331Z,2.10
2023-04-28T11:34:39.728Z,2.00
2023-04-28T11:37:08.685Z,2.33
2023-04-28T11:40:01.934Z,2.20
2023-04-28T11:42:29.442Z,2.37
2023-04-28T11:44:56.512Z,2.50
2023-04-28T11:47:31.593Z,2.37
2023-04-28T11:49:59.554Z,2.30
2023-04-28T11:52:27.470Z,2.50
2023-04-28T12:01:11.901Z,2.60
2023-04-28T12:03:48.505Z,2.92
2023-04-28T12:06:19.060Z,3.05
2023-04-28T12:08:46.360Z,2.67
2023-04-28T12:11:14.681Z,2.80
2023-04-28T12:13:41.950Z,3.00
2023-04-28T12:16:11.688Z,3.50
2023-04-28T12:18:41.131Z,3.00
2023-04-28T12:21:29.149Z,3.20
2023-04-28T12:23:57.645Z,3.70
2023-04-28T12:26:27.427Z,3.00
2023-04-28T12:28:54.386Z,3.20
2023-04-28T12:31:21.809Z,3.00
2023-04-28T12:33:48.980Z,3.03
2023-04-28T12:36:17.578Z,3.53
2023-04-28T12:38:49.575Z,3.60
2023-04-28T12:41:19.550Z,3.10
2023-04-28T12:43:46.446Z,3.37
2023-04-28T12:46:15.814Z,3.47
2023-04-28T12:48:42.709Z,3.03
2023-04-28T12:51:09.561Z,3.23
2023-04-28T12:53:36.370Z,3.73
2023-04-28T12:56:03.283Z,4.70
2023-04-28T12:58:31.556Z,4.10
2023-04-28T13:00:58.373Z,4.33
2023-04-28T13:03:25.335Z,4.30
2023-04-28T13:05:52.214Z,3.80
2023-04-28T13:08:19.112Z,4.33
2023-04-28T13:10:46.532Z,4.30
2023-04-28T13:13:13.350Z,4.30
2023-04-28T13:15:40.255Z,4.35
2023-04-28T13:18:07.308Z,4.20
2023-04-28T13:20:34.255Z,4.47
2023-04-28T13:23:01.265Z,4.13
2023-04-28T13:25:29.141Z,4.43
2023-04-28T13:27:56.059Z,4.47
2023-04-28T13:30:23.016Z,4.60
2023-04-28T13:32:50.181Z,3.97
2023-04-28T13:35:17.677Z,4.30
2023-04-28T13:37:46.427Z,4.20
2023-04-28T13:40:13.563Z,4.43
